Time;durP1;ratioP1;P1;durP2;ratioP2;P2;SDS_P1;SDS_P2;PMS_P1;PMS_P2;Temp;Humidity;BMP_temperature;BMP_pressure;BME280_temperature;BME280_humidity;BME280_pressure;Samples;Min_cycle;Max_cycle;Signal;HPM_P1;HPM_P2
2022/10/15 00:01:27;;;;;;;21.73;14.75;;;13.70;99.90;;;;;;5036800;28;20041;-94
2022/10/15 00:03:53;;;;;;;19.92;14.70;;;13.70;99.90;;;;;;5035890;28;20075;-95
2022/10/15 00:06:20;;;;;;;20.52;15.15;;;13.70;99.90;;;;;;5035693;28;20030;-95
2022/10/15 00:08:46;;;;;;;24.13;15.93;;;13.70;99.90;;;;;;5020045;28;20466;-95
2022/10/15 00:11:20;;;;;;;24.67;15.95;;;13.70;99.90;;;;;;5036063;28;20026;-96
2022/10/15 00:13:47;;;;;;;22.70;15.57;;;13.60;99.90;;;;;;5038429;28;20041;-95
2022/10/15 00:16:15;;;;;;;22.95;15.68;;;13.60;99.90;;;;;;5039111;28;20040;-95
2022/10/15 00:18:44;;;;;;;22.88;15.60;;;13.60;99.90;;;;;;5025455;28;20029;-95
2022/10/15 00:21:13;;;;;;;24.75;16.00;;;13.60;99.90;;;;;;5011659;28;20033;-95
2022/10/15 00:23:39;;;;;;;23.02;15.23;;;13.50;99.90;;;;;;5020732;28;20104;-96
2022/10/15 00:26:08;;;;;;;23.60;15.70;;;13.50;99.90;;;;;;5039259;23;20072;-86
2022/10/15 00:28:34;;;;;;;23.42;15.90;;;13.50;99.90;;;;;;5055010;28;20024;-86
2022/10/15 00:31:02;;;;;;;20.27;15.23;;;13.50;99.90;;;;;;5038601;28;20378;-85
2022/10/15 00:33:31;;;;;;;21.00;14.65;;;13.50;99.90;;;;;;5040183;28;20036;-85
2022/10/15 00:36:15;;;;;;;20.13;14.75;;;13.40;99.90;;;;;;5025180;28;20029;-86
2022/10/15 00:41:39;;;;;;;17.50;14.27;;;13.40;99.90;;;;;;5059145;28;20056;-86
2022/10/15 00:44:20;;;;;;;18.35;14.52;;;13.40;99.90;;;;;;5057091;28;20044;-85
2022/10/15 00:46:56;;;;;;;;;;;13.30;99.90;;;;;;5057745;28;20086;-86
2022/10/15 00:50:04;;;;;;;18.70;13.70;;;13.30;99.90;;;;;;5056814;28;20350;-85
2022/10/15 00:53:20;;;;;;;16.77;11.25;;;13.30;99.90;;;;;;5044664;28;20056;-86
2022/10/15 00:55:46;;;;;;;16.20;9.75;;;13.20;99.90;;;;;;4963973;28;20038;-86
2022/10/15 00:58:15;;;;;;;13.20;9.60;;;13.20;99.90;;;;;;5000231;28;20037;-86
2022/10/15 01:00:41;;;;;;;14.40;9.50;;;13.10;99.90;;;;;;5050050;28;20091;-86
2022/10/15 01:03:08;;;;;;;15.77;10.80;;;13.10;99.90;;;;;;5056458;28;20041;-86
2022/10/15 01:05:36;;;;;;;16.98;11.95;;;13.10;99.90;;;;;;5056065;28;20461;-86
2022/10/15 01:08:03;;;;;;;17.75;12.77;;;13.10;99.90;;;;;;5036080;28;20108;-85
2022/10/15 01:10:58;;;;;;;20.50;14.25;;;13.10;99.90;;;;;;5029971;28;20037;-87
2022/10/15 01:13:49;;;;;;;20.25;12.95;;;13.10;99.90;;;;;;5011310;28;20026;-87
2022/10/15 01:16:34;;;;;;;15.55;11.68;;;13.10;99.90;;;;;;5038986;28;20045;-85
2022/10/15 01:19:09;;;;;;;16.55;9.95;;;13.00;99.90;;;;;;5055790;28;20029;-86
2022/10/15 01:21:46;;;;;;;13.32;9.38;;;13.00;99.90;;;;;;5055768;28;20028;-85
2022/10/15 01:24:28;;;;;;;13.85;9.55;;;13.00;99.90;;;;;;5055220;28;20111;-86
2022/10/15 01:27:16;;;;;;;;;;;13.00;99.90;;;;;;5055571;28;20107;-86
2022/10/15 01:30:10;;;;;;;12.48;9.38;;;13.00;99.90;;;;;;5057191;28;19940;-85
2022/10/15 01:32:45;;;;;;;13.40;9.75;;;13.00;99.90;;;;;;5056114;28;20017;-84
2022/10/15 01:35:30;;;;;;;17.55;11.80;;;13.00;99.90;;;;;;5055351;28;20033;-85
2022/10/15 01:38:05;;;;;;;17.45;10.85;;;12.90;99.90;;;;;;5034722;28;20029;-84
2022/10/15 01:40:54;;;;;;;14.32;10.65;;;12.90;99.90;;;;;;5048712;28;20025;-85
2022/10/15 01:43:26;;;;;;;17.65;12.95;;;12.90;99.90;;;;;;5038462;28;20087;-85
2022/10/15 01:45:56;;;;;;;18.02;13.35;;;12.90;99.90;;;;;;5054196;28;20058;-87
2022/10/15 01:48:26;;;;;;;17.50;12.25;;;13.00;99.90;;;;;;5054278;28;20057;-85
2022/10/15 01:51:22;;;;;;;16.83;12.30;;;13.00;99.90;;;;;;5054125;28;20020;-85
2022/10/15 01:53:49;;;;;;;17.98;13.93;;;13.00;99.90;;;;;;5053675;28;20017;-86
2022/10/15 01:56:23;;;;;;;17.83;13.30;;;13.00;99.90;;;;;;5053125;28;20124;-86
2022/10/15 01:58:53;;;;;;;16.92;12.95;;;13.00;99.90;;;;;;5036948;28;20112;-86
2022/10/15 02:01:20;;;;;;;20.42;14.45;;;13.00;99.90;;;;;;5029626;28;20148;-86
2022/10/15 02:03:50;;;;;;;18.30;13.65;;;13.00;99.90;;;;;;5013399;28;20068;-86
2022/10/15 02:06:41;;;;;;;19.65;14.40;;;13.00;99.90;;;;;;5033381;28;20021;-86
2022/10/15 02:09:24;;;;;;;18.87;14.87;;;13.00;99.90;;;;;;5036803;28;20017;-86
2022/10/15 02:11:58;;;;;;;21.77;15.45;;;13.00;99.90;;;;;;5036348;28;20032;-86
2022/10/15 02:14:34;;;;;;;22.40;16.08;;;13.00;99.90;;;;;;5037084;28;20108;-86
2022/10/15 02:17:10;;;;;;;22.83;16.02;;;13.00;99.90;;;;;;5036889;28;20037;-86
2022/10/15 02:19:51;;;;;;;21.98;16.83;;;13.00;99.90;;;;;;5036830;28;20111;-88
2022/10/15 02:22:30;;;;;;;20.23;15.80;;;13.00;99.90;;;;;;5024586;28;20029;-86
2022/10/15 02:25:02;;;;;;;26.35;17.05;;;13.00;99.90;;;;;;5036727;28;20378;-86
2022/10/15 02:27:30;;;;;;;21.73;16.25;;;13.00;99.90;;;;;;5034236;28;20049;-86
2022/10/15 02:29:57;;;;;;;25.48;17.35;;;13.00;99.90;;;;;;5037215;28;20021;-86
2022/10/15 02:32:25;;;;;;;24.00;16.65;;;13.00;99.90;;;;;;5017272;28;20033;-86
2022/10/15 02:34:52;;;;;;;24.10;17.40;;;13.00;99.90;;;;;;5025470;28;20471;-86
2022/10/15 02:37:25;;;;;;;22.27;17.17;;;13.00;99.90;;;;;;5030974;28;20463;-86
2022/10/15 02:39:51;;;;;;;24.63;17.48;;;13.00;99.90;;;;;;5036595;28;20049;-86
2022/10/15 02:42:18;;;;;;;26.15;17.60;;;13.00;99.90;;;;;;5019858;28;20025;-86
2022/10/15 02:44:44;;;;;;;23.45;17.45;;;13.00;99.90;;;;;;5039969;28;20029;-86
2022/10/15 02:47:10;;;;;;;22.17;16.30;;;13.00;99.90;;;;;;5019667;28;20124;-86
2022/10/15 02:49:36;;;;;;;21.30;16.63;;;13.00;99.90;;;;;;5037563;28;20079;-86
2022/10/15 02:52:02;;;;;;;23.60;17.10;;;13.00;99.90;;;;;;5020930;28;20055;-86
2022/10/15 02:54:28;;;;;;;21.67;16.05;;;13.00;99.90;;;;;;5003514;28;20055;-86
2022/10/15 02:56:55;;;;;;;23.95;17.13;;;13.00;99.90;;;;;;5020307;28;20317;-86
2022/10/15 02:59:21;;;;;;;25.02;18.30;;;13.10;99.90;;;;;;5001273;28;20116;-86
2022/10/15 03:01:48;;;;;;;26.50;17.42;;;13.00;99.90;;;;;;5034575;28;20037;-88
2022/10/15 03:04:14;;;;;;;26.60;17.95;;;13.00;99.90;;;;;;5021176;28;20490;-87
2022/10/15 03:06:40;;;;;;;24.52;17.92;;;13.00;99.90;;;;;;5021111;28;20033;-86
2022/10/15 03:09:06;;;;;;;26.67;18.98;;;13.00;99.90;;;;;;5000849;28;20021;-86
2022/10/15 03:11:32;;;;;;;30.13;18.67;;;13.00;99.90;;;;;;5015271;28;20037;-86
2022/10/15 03:13:58;;;;;;;27.35;18.98;;;13.00;99.90;;;;;;5012056;28;20457;-86
2022/10/15 03:16:25;;;;;;;25.92;19.08;;;13.00;99.90;;;;;;5004998;28;20544;-86
2022/10/15 03:18:51;;;;;;;28.48;19.15;;;13.00;99.90;;;;;;5036891;28;20105;-85
2022/10/15 03:21:17;;;;;;;28.45;17.95;;;13.00;99.90;;;;;;5020348;28;20375;-86
2022/10/15 03:23:43;;;;;;;23.85;18.13;;;13.00;99.90;;;;;;5016623;28;20022;-85
2022/10/15 03:26:11;;;;;;;29.50;18.05;;;13.00;99.90;;;;;;5001930;28;20084;-86
2022/10/15 03:28:37;;;;;;;27.38;18.33;;;12.90;99.90;;;;;;5039060;28;20025;-86
2022/10/15 03:31:05;;;;;;;31.42;19.20;;;12.90;99.90;;;;;;5036446;28;20074;-86
2022/10/15 03:33:35;;;;;;;30.08;20.98;;;12.90;99.90;;;;;;5025588;28;20017;-86
2022/10/15 03:36:00;;;;;;;29.63;20.42;;;12.90;99.90;;;;;;5019703;28;20079;-86
2022/10/15 03:38:27;;;;;;;30.30;19.45;;;12.90;99.90;;;;;;5023206;28;20494;-86
2022/10/15 03:40:53;;;;;;;29.70;19.98;;;12.90;99.90;;;;;;5023489;28;20087;-86
2022/10/15 03:43:22;;;;;;;29.75;20.65;;;12.80;99.90;;;;;;5020457;28;20407;-86
2022/10/15 03:45:48;;;;;;;29.25;20.00;;;12.90;99.90;;;;;;5023497;28;20025;-85
2022/10/15 03:48:14;;;;;;;28.27;20.08;;;12.90;99.90;;;;;;5036335;28;20025;-86
2022/10/15 03:50:40;;;;;;;29.55;20.25;;;12.90;99.90;;;;;;5007109;28;20100;-86
2022/10/15 03:53:06;;;;;;;33.63;20.95;;;12.90;99.90;;;;;;5023322;28;20386;-86
2022/10/15 03:55:32;;;;;;;30.38;20.15;;;12.90;99.90;;;;;;5023210;28;20030;-86
2022/10/15 03:58:00;;;;;;;30.75;21.10;;;12.90;99.90;;;;;;5057532;28;20413;-85
2022/10/15 04:00:29;;;;;;;32.15;21.02;;;12.90;99.90;;;;;;5022956;28;20032;-86
2022/10/15 04:02:55;;;;;;;34.15;19.98;;;12.90;99.90;;;;;;5039702;28;20021;-88
2022/10/15 04:05:21;;;;;;;29.83;20.02;;;12.90;99.90;;;;;;5023796;28;20082;-88
2022/10/15 04:07:47;;;;;;;27.40;19.80;;;12.90;99.90;;;;;;5023311;28;20115;-88
2022/10/15 04:13:35;;;;;;;33.83;20.92;;;12.90;99.90;;;;;;5056079;28;20505;-88
2022/10/15 04:16:11;;;;;;;33.92;21.17;;;12.90;99.90;;;;;;5039835;28;20099;-88
2022/10/15 04:18:37;;;;;;;29.70;20.55;;;12.90;99.90;;;;;;5023950;28;20029;-88
2022/10/15 04:24:26;;;;;;;27.15;19.33;;;12.90;99.90;;;;;;5051875;28;20132;-88
2022/10/15 04:26:52;;;;;;;29.38;20.67;;;12.90;99.90;;;;;;5038678;28;20041;-86
2022/10/15 04:29:19;;;;;;;31.45;22.00;;;12.90;99.90;;;;;;5038819;28;20017;-86
2022/10/15 04:31:45;;;;;;;35.28;24.13;;;12.90;99.90;;;;;;5038471;28;20025;-86
2022/10/15 04:34:13;;;;;;;36.42;23.42;;;12.90;99.90;;;;;;5038561;28;20023;-85
2022/10/15 04:36:40;;;;;;;39.10;24.80;;;12.90;99.90;;;;;;5034346;28;20025;-86
2022/10/15 04:39:07;;;;;;;39.65;25.70;;;13.00;99.90;;;;;;5018754;28;20034;-86
2022/10/15 04:41:33;;;;;;;40.92;26.27;;;13.00;99.90;;;;;;5021640;28;20033;-85
2022/10/15 04:43:59;;;;;;;49.92;30.98;;;13.00;99.90;;;;;;5005564;28;20029;-86
2022/10/15 04:46:25;;;;;;;46.90;28.25;;;13.00;99.90;;;;;;5037877;28;20393;-85
2022/10/15 04:48:56;;;;;;;53.30;31.10;;;13.00;99.90;;;;;;5021770;28;20025;-86
2022/10/15 04:51:22;;;;;;;52.80;32.95;;;13.10;99.90;;;;;;5038203;28;20021;-86
2022/10/15 04:53:48;;;;;;;60.58;34.70;;;13.10;99.90;;;;;;5018289;28;20049;-86
2022/10/15 04:56:16;;;;;;;54.20;31.65;;;13.20;99.90;;;;;;5021517;28;20036;-86
2022/10/15 04:58:43;;;;;;;58.22;33.45;;;13.20;99.90;;;;;;5055582;28;20493;-86
2022/10/15 05:01:11;;;;;;;46.40;32.25;;;13.20;99.90;;;;;;5034442;28;20475;-86
2022/10/15 05:03:38;;;;;;;45.88;30.60;;;13.20;99.90;;;;;;5037679;28;20032;-86
2022/10/15 05:06:09;;;;;;;55.28;33.03;;;13.30;99.90;;;;;;5021374;28;20371;-86
2022/10/15 05:08:42;;;;;;;53.58;33.75;;;13.30;99.90;;;;;;5034563;28;20029;-85
2022/10/15 05:11:11;;;;;;;56.72;33.10;;;13.30;99.90;;;;;;5021307;28;20029;-86
2022/10/15 05:13:36;;;;;;;63.20;33.85;;;13.30;99.90;;;;;;5037392;28;20047;-85
2022/10/15 05:16:15;;;;;;;49.53;31.83;;;13.30;99.90;;;;;;5017977;28;20021;-85
2022/10/15 05:18:44;;;;;;;61.05;33.35;;;13.30;99.90;;;;;;5038406;28;20021;-86
2022/10/15 05:21:11;;;;;;;60.58;34.70;;;13.40;99.90;;;;;;5000991;28;20130;-86
2022/10/15 05:23:38;;;;;;;61.15;34.33;;;13.30;99.90;;;;;;5038199;28;20439;-86
2022/10/15 05:26:07;;;;;;;62.63;34.28;;;13.40;99.90;;;;;;5055459;28;20147;-85
2022/10/15 05:28:34;;;;;;;48.03;31.08;;;13.40;99.90;;;;;;5034972;23;20082;-86
2022/10/15 05:31:27;;;;;;;51.10;31.85;;;13.40;99.90;;;;;;4978808;28;20109;-86
2022/10/15 05:33:53;;;;;;;56.47;31.67;;;13.40;99.90;;;;;;4979230;28;20485;-86
2022/10/15 05:36:35;;;;;;;51.40;31.88;;;13.50;99.90;;;;;;4977263;28;20456;-86
2022/10/15 05:45:45;;;;;;;47.80;30.02;;;13.50;99.90;;;;;;4995439;28;20041;-86
2022/10/15 05:48:11;;;;;;;42.33;29.25;;;13.50;99.90;;;;;;4990333;28;20121;-86
2022/10/15 05:50:36;;;;;;;48.45;29.60;;;13.50;99.90;;;;;;4964449;28;20026;-86
2022/10/15 05:53:09;;;;;;;56.05;30.80;;;13.50;99.90;;;;;;4980548;28;20106;-86
2022/10/15 05:55:34;;;;;;;61.35;34.55;;;13.60;99.90;;;;;;4965631;28;20030;-86
2022/10/15 05:58:02;;;;;;;69.25;37.13;;;13.50;99.90;;;;;;4964175;28;20045;-85
2022/10/15 06:00:29;;;;;;;78.90;37.20;;;13.50;99.90;;;;;;4960787;28;20436;-86
2022/10/15 06:02:54;;;;;;;65.10;34.45;;;13.60;99.90;;;;;;4985185;28;20054;-86
2022/10/15 06:05:20;;;;;;;82.85;37.85;;;13.60;99.90;;;;;;4964426;28;20029;-85
2022/10/15 06:07:46;;;;;;;94.90;41.25;;;13.60;99.90;;;;;;4963965;28;20035;-86
2022/10/15 06:10:12;;;;;;;99.57;41.55;;;13.70;99.90;;;;;;4964116;28;20027;-88
2022/10/15 06:12:38;;;;;;;73.60;37.05;;;13.70;99.90;;;;;;4965138;28;20093;-88
2022/10/15 06:15:05;;;;;;;87.70;38.55;;;13.70;99.90;;;;;;4964929;28;20022;-88
2022/10/15 06:17:31;;;;;;;82.22;36.55;;;13.70;99.90;;;;;;4964698;28;20050;-88
2022/10/15 06:19:57;;;;;;;81.43;37.20;;;13.70;99.90;;;;;;4949334;28;20475;-88
2022/10/15 06:22:25;;;;;;;75.93;35.88;;;13.70;99.90;;;;;;4997892;28;20097;-88
2022/10/15 06:24:52;;;;;;;72.25;34.45;;;13.70;99.90;;;;;;4964704;28;20027;-87
2022/10/15 06:27:18;;;;;;;70.47;32.80;;;13.80;99.90;;;;;;4980044;28;20033;-88
2022/10/15 06:29:44;;;;;;;75.43;34.50;;;13.80;99.90;;;;;;4963803;28;20074;-88
2022/10/15 06:32:10;;;;;;;74.53;34.92;;;13.80;99.90;;;;;;4961741;28;20031;-88
2022/10/15 06:34:36;;;;;;;66.57;32.80;;;13.80;99.90;;;;;;4980349;28;20117;-88
2022/10/15 06:37:02;;;;;;;69.25;33.85;;;13.80;99.90;;;;;;4965041;28;20108;-88
2022/10/15 06:39:28;;;;;;;61.60;31.50;;;13.90;99.90;;;;;;4965410;28;20034;-88
2022/10/15 06:41:54;;;;;;;68.70;33.60;;;13.90;99.90;;;;;;4965152;28;20373;-88
2022/10/15 06:44:20;;;;;;;64.90;32.97;;;13.90;99.90;;;;;;4963201;28;20117;-88
2022/10/15 06:46:46;;;;;;;72.07;33.22;;;13.90;99.90;;;;;;4980737;28;20081;-88
2022/10/15 06:49:12;;;;;;;68.03;32.13;;;13.90;99.90;;;;;;4965104;28;20030;-88
2022/10/15 06:51:37;;;;;;;59.13;29.30;;;13.90;99.90;;;;;;4964166;28;20026;-88
2022/10/15 06:54:03;;;;;;;71.20;32.45;;;13.90;99.90;;;;;;4980796;28;20019;-88
2022/10/15 06:56:29;;;;;;;64.07;31.98;;;14.00;99.90;;;;;;4964180;28;20413;-88
2022/10/15 06:58:55;;;;;;;77.97;34.35;;;14.00;99.90;;;;;;4982390;28;20058;-88
2022/10/15 07:01:21;;;;;;;73.57;34.47;;;14.00;99.90;;;;;;4968113;28;20054;-88
2022/10/15 07:03:50;;;;;;;65.90;32.25;;;14.00;99.90;;;;;;4984366;28;20057;-88
2022/10/15 07:06:17;;;;;;;63.80;31.38;;;14.00;99.90;;;;;;4975132;28;20031;-88
2022/10/15 07:08:43;;;;;;;61.63;31.13;;;14.00;99.90;;;;;;4966661;28;20022;-88
2022/10/15 07:11:09;;;;;;;57.88;28.75;;;14.00;99.90;;;;;;4966214;28;20181;-88
2022/10/15 07:13:36;;;;;;;59.22;28.10;;;14.00;99.90;;;;;;4982170;28;20053;-89
2022/10/15 07:16:06;;;;;;;56.83;27.67;;;14.00;99.90;;;;;;4965456;28;20027;-88
2022/10/15 07:18:33;;;;;;;63.95;29.80;;;14.00;99.90;;;;;;4981546;28;20031;-89
2022/10/15 07:21:01;;;;;;;56.50;28.98;;;14.00;99.90;;;;;;4965895;28;20018;-89
2022/10/15 07:23:27;;;;;;;60.58;29.02;;;14.00;99.90;;;;;;4965074;28;20038;-88
2022/10/15 07:25:53;;;;;;;57.60;28.88;;;14.10;99.90;;;;;;4965402;28;20022;-88
2022/10/15 07:28:19;;;;;;;59.55;28.60;;;14.10;99.90;;;;;;4961958;28;20142;-88
2022/10/15 07:30:44;;;;;;;60.03;29.08;;;14.10;99.90;;;;;;4967142;28;20054;-89
2022/10/15 07:33:10;;;;;;;59.58;29.35;;;14.10;99.90;;;;;;4959641;28;20022;-89
2022/10/15 07:35:36;;;;;;;61.20;29.02;;;14.10;99.90;;;;;;4967354;28;20035;-88
2022/10/15 07:38:03;;;;;;;67.93;29.77;;;14.10;99.90;;;;;;4981105;28;20109;-89
2022/10/15 07:40:29;;;;;;;69.00;29.02;;;14.10;99.90;;;;;;4965695;28;20121;-89
2022/10/15 07:42:56;;;;;;;82.65;34.03;;;14.10;99.90;;;;;;4969785;28;20065;-89
2022/10/15 07:45:22;;;;;;;108.63;36.22;;;14.10;99.90;;;;;;4973308;28;20125;-90
2022/10/15 07:47:48;;;;;;;53.55;29.33;;;14.10;99.90;;;;;;4981533;28;20025;-90
2022/10/15 07:50:14;;;;;;;58.53;26.45;;;14.20;99.90;;;;;;4962262;28;20027;-89
2022/10/15 07:52:40;;;;;;;91.93;35.75;;;14.10;99.90;;;;;;4981815;28;20014;-91
2022/10/15 07:55:06;;;;;;;74.18;29.35;;;14.20;99.90;;;;;;4965002;28;20030;-89
2022/10/15 07:57:32;;;;;;;94.00;34.03;;;14.20;99.90;;;;;;4965779;28;20022;-89
2022/10/15 07:59:58;;;;;;;74.32;32.45;;;14.20;99.90;;;;;;4965379;28;20030;-89
2022/10/15 08:02:24;;;;;;;73.63;32.05;;;14.20;99.90;;;;;;4961134;28;20031;-90
2022/10/15 08:04:51;;;;;;;76.50;30.77;;;14.20;99.90;;;;;;4964483;28;20054;-90
2022/10/15 08:07:17;;;;;;;60.47;28.55;;;14.30;99.90;;;;;;4966250;28;20035;-90
2022/10/15 08:09:43;;;;;;;60.85;28.75;;;14.30;99.90;;;;;;4965412;28;20117;-89
2022/10/15 08:12:09;;;;;;;63.30;29.70;;;14.30;99.90;;;;;;4965166;28;20023;-89
2022/10/15 08:14:35;;;;;;;65.28;28.67;;;14.30;99.90;;;;;;4964736;28;20030;-88
2022/10/15 08:17:03;;;;;;;57.30;28.17;;;14.40;99.90;;;;;;4980832;28;20169;-87
2022/10/15 08:19:29;;;;;;;56.10;28.67;;;14.40;99.90;;;;;;4981895;28;20033;-87
2022/10/15 08:21:55;;;;;;;56.90;28.65;;;14.40;99.90;;;;;;4965233;28;20034;-87
2022/10/15 08:24:21;;;;;;;53.92;28.67;;;14.40;99.90;;;;;;4964407;28;20046;-86
2022/10/15 08:26:48;;;;;;;52.13;27.23;;;14.50;99.90;;;;;;4964528;28;20030;-86
2022/10/15 08:29:14;;;;;;;49.20;26.65;;;14.50;99.90;;;;;;4980930;28;20034;-88
2022/10/15 08:31:40;;;;;;;47.35;26.00;;;14.60;99.90;;;;;;4981209;28;20026;-87
2022/10/15 08:34:10;;;;;;;44.67;24.85;;;14.60;99.90;;;;;;4981729;28;20137;-85
2022/10/15 08:36:36;;;;;;;47.55;25.60;;;14.60;99.90;;;;;;4978383;28;20057;-86
2022/10/15 08:39:02;;;;;;;48.63;24.95;;;14.60;99.90;;;;;;4973173;28;20026;-86
2022/10/15 08:41:30;;;;;;;45.13;25.10;;;14.70;99.90;;;;;;4969164;28;20038;-87
2022/10/15 08:43:56;;;;;;;38.08;22.42;;;14.70;99.90;;;;;;4981247;28;20084;-87
2022/10/15 08:46:35;;;;;;;42.08;24.35;;;14.80;99.90;;;;;;5002146;28;20033;-87
2022/10/15 08:49:02;;;;;;;42.33;24.25;;;14.80;99.90;;;;;;4976568;28;20161;-88
2022/10/15 08:51:45;;;;;;;39.40;23.25;;;14.80;99.90;;;;;;4969387;28;20463;-91
2022/10/15 08:54:18;;;;;;;38.17;22.63;;;14.90;99.90;;;;;;4984646;28;20072;-90
2022/10/15 08:56:47;;;;;;;38.53;23.17;;;14.90;99.90;;;;;;4990676;28;20022;-92
2022/10/15 08:59:25;;;;;;;35.03;22.08;;;14.90;99.90;;;;;;4977574;28;20031;-89
2022/10/15 09:02:39;;;;;;;31.65;21.65;;;14.90;99.90;;;;;;4990190;28;20080;-89
2022/10/15 09:05:26;;;;;;;36.30;22.85;;;14.90;99.90;;;;;;4967310;28;20074;-89
2022/10/15 09:08:02;;;;;;;37.22;22.00;;;14.90;99.90;;;;;;4977780;28;20027;-89
2022/10/15 09:11:05;;;;;;;37.30;21.52;;;14.90;99.90;;;;;;4982377;28;20068;-90
2022/10/15 09:13:39;;;;;;;32.80;20.10;;;15.00;99.90;;;;;;4984155;28;20023;-89
2022/10/15 09:16:15;;;;;;;29.17;20.10;;;15.00;99.90;;;;;;4983399;28;20090;-89
2022/10/15 09:18:50;;;;;;;29.67;19.85;;;15.10;99.90;;;;;;4985022;28;20117;-89
2022/10/15 09:21:16;;;;;;;25.92;18.27;;;15.10;99.90;;;;;;4992047;28;20483;-91
2022/10/15 09:23:43;;;;;;;27.45;17.70;;;15.10;99.90;;;;;;4966198;28;20054;-91
2022/10/15 09:26:11;;;;;;;24.83;17.20;;;15.10;99.90;;;;;;4979721;28;20022;-91
2022/10/15 09:28:46;;;;;;;23.67;15.68;;;15.20;99.90;;;;;;4988362;28;20054;-91
2022/10/15 09:31:18;;;;;;;24.05;15.88;;;15.20;99.90;;;;;;4981364;28;20526;-91
2022/10/15 09:33:53;;;;;;;22.38;14.75;;;15.20;99.90;;;;;;4992462;28;20018;-90
2022/10/15 09:36:45;;;;;;;23.50;15.57;;;15.30;99.90;;;;;;4978111;28;20023;-91
2022/10/15 09:39:18;;;;;;;25.13;15.00;;;15.30;99.90;;;;;;4979462;28;20030;-89
2022/10/15 09:41:55;;;;;;;21.23;14.25;;;15.40;99.90;;;;;;4976779;28;20030;-89
2022/10/15 09:44:23;;;;;;;23.48;14.35;;;15.50;99.90;;;;;;4978392;28;20034;-90
2022/10/15 09:46:50;;;;;;;19.02;13.23;;;15.50;99.90;;;;;;4973158;28;20507;-89
2022/10/15 09:49:19;;;;;;;21.60;13.00;;;15.50;99.90;;;;;;4963860;28;20026;-87
2022/10/15 09:52:15;;;;;;;18.65;12.15;;;15.60;99.90;;;;;;4981448;28;20027;-88
2022/10/15 09:54:40;;;;;;;18.98;12.40;;;15.60;99.90;;;;;;4980095;28;20046;-88
2022/10/15 09:57:09;;;;;;;18.08;12.10;;;15.70;99.90;;;;;;4990298;28;20057;-89
2022/10/15 09:59:34;;;;;;;17.90;12.55;;;15.60;99.90;;;;;;4958578;28;20030;-89
2022/10/15 10:02:17;;;;;;;16.75;12.55;;;15.70;99.90;;;;;;4962753;28;20080;-88
2022/10/15 10:04:43;;;;;;;16.63;11.45;;;15.70;99.90;;;;;;4995616;28;20026;-88
2022/10/15 10:07:26;;;;;;;16.90;11.65;;;15.80;99.90;;;;;;4962030;28;20026;-86
2022/10/15 10:09:54;;;;;;;18.88;12.45;;;15.80;99.90;;;;;;4972709;28;20460;-87
2022/10/15 10:12:23;;;;;;;16.75;11.65;;;15.80;99.90;;;;;;4978668;28;20109;-88
2022/10/15 10:15:01;;;;;;;16.92;11.55;;;15.80;99.90;;;;;;4979240;28;20172;-89
2022/10/15 10:17:28;;;;;;;18.85;12.38;;;15.80;99.90;;;;;;4972714;28;20026;-88
2022/10/15 10:20:18;;;;;;;17.80;12.13;;;15.90;99.90;;;;;;4960193;28;20023;-87
2022/10/15 10:22:45;;;;;;;19.42;11.68;;;15.90;99.90;;;;;;4972995;28;20076;-88
2022/10/15 10:25:39;;;;;;;17.20;11.57;;;15.90;99.90;;;;;;4977987;28;20113;-89
2022/10/15 10:28:08;;;;;;;18.60;11.43;;;15.90;99.90;;;;;;4975381;28;20039;-88
2022/10/15 10:30:50;;;;;;;19.10;11.85;;;15.90;99.90;;;;;;4983079;28;20026;-87
2022/10/15 10:33:26;;;;;;;21.48;12.32;;;16.00;99.90;;;;;;4978543;28;20035;-87
2022/10/15 10:35:52;;;;;;;19.02;11.98;;;16.00;99.90;;;;;;4966724;28;20029;-87
2022/10/15 10:38:36;;;;;;;21.08;13.25;;;16.00;99.90;;;;;;4964547;28;20070;-86
2022/10/15 10:41:10;;;;;;;22.67;13.15;;;16.00;99.90;;;;;;4976709;28;20026;-87
2022/10/15 10:43:39;;;;;;;23.67;14.35;;;16.00;99.90;;;;;;4962551;28;20088;-89
2022/10/15 10:46:17;;;;;;;22.15;12.95;;;16.00;99.90;;;;;;4980486;28;20026;-87
2022/10/15 10:48:54;;;;;;;21.92;14.10;;;16.00;99.90;;;;;;4983355;28;20093;-91
2022/10/15 10:51:25;;;;;;;21.88;13.88;;;15.90;99.90;;;;;;4980539;28;20463;-89
2022/10/15 10:53:59;;;;;;;22.70;13.70;;;15.90;99.90;;;;;;4980769;28;20023;-89
2022/10/15 10:56:33;;;;;;;25.23;14.82;;;15.90;99.90;;;;;;4976571;28;20487;-89
2022/10/15 10:59:26;;;;;;;28.50;15.55;;;15.90;99.90;;;;;;4981691;28;20547;-89
2022/10/15 11:01:53;;;;;;;28.60;15.63;;;15.90;99.90;;;;;;4977459;28;20018;-87
2022/10/15 11:04:33;;;;;;;27.08;14.85;;;15.90;99.90;;;;;;4963705;28;20026;-88
2022/10/15 11:07:40;;;;;;;23.13;14.38;;;16.00;99.90;;;;;;4982094;28;20455;-89
2022/10/15 11:10:21;;;;;;;23.48;14.27;;;16.00;99.90;;;;;;4972862;28;20022;-88
2022/10/15 11:13:08;;;;;;;24.25;13.40;;;16.00;99.90;;;;;;4978422;28;20440;-89
2022/10/15 11:15:54;;;;;;;21.95;12.82;;;16.00;99.90;;;;;;4969120;28;20129;-88
2022/10/15 11:18:23;;;;;;;22.73;12.35;;;16.00;99.90;;;;;;4972103;28;20123;-89
2022/10/15 11:21:10;;;;;;;23.45;12.00;;;16.00;99.90;;;;;;4989539;28;20027;-89
2022/10/15 11:23:54;;;;;;;19.55;11.13;;;16.00;99.90;;;;;;4979465;28;20034;-88
2022/10/15 11:27:03;;;;;;;19.60;11.85;;;16.00;99.90;;;;;;4978388;28;20081;-89
2022/10/15 11:29:39;;;;;;;16.55;10.70;;;16.00;99.90;;;;;;4973964;28;20708;-88
2022/10/15 11:32:42;;;;;;;14.65;9.27;;;16.00;99.90;;;;;;4974580;28;20025;-88
2022/10/15 11:35:34;;;;;;;16.65;8.50;;;16.10;99.90;;;;;;4980827;28;20022;-90
2022/10/15 11:38:34;;;;;;;15.60;8.60;;;16.10;99.90;;;;;;4980670;28;20034;-89
2022/10/15 11:41:40;;;;;;;16.10;9.15;;;16.10;99.90;;;;;;4978528;28;20090;-87
2022/10/15 11:44:25;;;;;;;15.15;8.15;;;16.10;99.90;;;;;;4989713;28;20411;-90
2022/10/15 11:47:17;;;;;;;13.18;8.32;;;16.10;99.90;;;;;;4995290;28;20030;-90
2022/10/15 11:50:18;;;;;;;12.80;7.47;;;16.10;99.90;;;;;;4989295;28;20042;-86
2022/10/15 11:53:02;;;;;;;13.38;8.02;;;16.10;99.90;;;;;;4980949;28;20044;-85
2022/10/15 11:55:40;;;;;;;12.30;7.75;;;16.20;99.90;;;;;;4993145;28;20030;-86
2022/10/15 11:58:20;;;;;;;12.38;8.20;;;16.20;99.90;;;;;;4980623;28;20273;-86
2022/10/15 12:00:50;;;;;;;12.90;7.80;;;16.20;99.90;;;;;;4980356;28;20096;-85
2022/10/15 12:03:22;;;;;;;11.53;7.87;;;16.20;99.90;;;;;;4980438;28;20025;-86
2022/10/15 12:05:57;;;;;;;13.15;7.97;;;16.20;99.90;;;;;;4992269;28;20289;-85
2022/10/15 12:08:28;;;;;;;13.27;7.80;;;16.30;99.90;;;;;;4979942;28;20019;-88
2022/10/15 12:11:06;;;;;;;11.55;7.57;;;16.30;99.90;;;;;;4979465;28;20380;-87
2022/10/15 12:14:11;;;;;;;11.68;7.85;;;16.30;99.90;;;;;;4975857;28;20388;-86
2022/10/15 12:17:39;;;;;;;13.32;8.45;;;16.30;99.90;;;;;;4980612;28;20038;-87
2022/10/15 12:20:14;;;;;;;10.38;6.63;;;16.30;99.90;;;;;;4935659;28;20092;-87
2022/10/15 12:22:52;;;;;;;13.70;7.85;;;16.30;99.90;;;;;;4979266;28;20072;-87
2022/10/15 12:25:33;;;;;;;10.32;7.07;;;16.40;99.90;;;;;;4994302;28;20053;-88
2022/10/15 12:28:13;;;;;;;;;;;16.40;99.90;;;;;;4974650;28;20061;-87
2022/10/15 12:30:41;;;;;;;11.65;7.50;;;16.40;99.90;;;;;;4980306;28;19912;-87
2022/10/15 12:33:35;;;;;;;12.35;8.60;;;16.40;99.90;;;;;;4982546;28;20038;-87
2022/10/15 12:36:08;;;;;;;11.35;8.32;;;16.50;99.90;;;;;;4979329;28;20032;-88
2022/10/15 12:38:49;;;;;;;9.93;7.70;;;16.50;99.90;;;;;;4989283;28;20027;-88
2022/10/15 12:41:15;;;;;;;12.38;7.82;;;16.50;99.90;;;;;;4979232;28;20529;-87
2022/10/15 12:43:44;;;;;;;9.35;7.13;;;16.60;99.90;;;;;;4976655;28;20038;-88
2022/10/15 12:46:12;;;;;;;9.88;6.82;;;16.60;99.90;;;;;;4980043;28;20058;-87
2022/10/15 12:48:42;;;;;;;10.88;7.75;;;16.70;99.90;;;;;;4998644;28;20101;-86
2022/10/15 12:51:23;;;;;;;10.13;7.53;;;16.70;99.90;;;;;;4985835;28;20081;-87
2022/10/15 12:53:49;;;;;;;;;;;16.80;99.90;;;;;;4975393;28;20324;-86
2022/10/15 12:56:15;;;;;;;11.63;8.43;;;16.80;99.90;;;;;;4979359;28;20382;-87
2022/10/15 12:58:43;;;;;;;10.95;8.18;;;16.80;99.90;;;;;;4979226;28;20030;-87
2022/10/15 13:01:18;;;;;;;9.82;8.07;;;16.80;99.90;;;;;;4997040;28;20026;-87
2022/10/15 13:03:50;;;;;;;10.30;7.85;;;16.90;99.90;;;;;;4980922;28;20088;-86
2022/10/15 13:06:29;;;;;;;9.70;7.47;;;16.90;99.90;;;;;;4979979;28;20119;-86
2022/10/15 13:09:10;;;;;;;13.25;8.27;;;16.90;99.90;;;;;;4981517;28;20022;-85
2022/10/15 13:11:49;;;;;;;10.00;8.00;;;17.00;99.90;;;;;;4980272;28;20026;-86
2022/10/15 13:14:36;;;;;;;12.40;9.40;;;17.00;99.90;;;;;;4980800;28;20031;-87